createdAt,value
2023-04-03T00:00:36.677Z,1.49
2023-04-03T00:01:36.518Z,1.52
2023-04-03T00:02:36.628Z,1.50
2023-04-03T00:03:36.497Z,1.46
2023-04-03T00:04:36.518Z,1.42
2023-04-03T00:05:36.477Z,1.38
2023-04-03T00:06:36.460Z,1.35
2023-04-03T00:07:36.454Z,1.36
2023-04-03T00:08:36.439Z,1.32
2023-04-03T00:09:36.430Z,1.29
2023-04-03T00:10:36.550Z,1.32
2023-04-03T00:11:36.413Z,1.21
2023-04-03T00:12:36.400Z,1.11
2023-04-03T00:13:36.384Z,0.99
2023-04-03T00:14:36.375Z,0.89
2023-04-03T00:15:36.369Z,0.75
2023-04-03T00:16:36.364Z,0.57
2023-04-03T00:17:36.362Z,0.48
2023-04-03T00:18:36.354Z,0.43
2023-04-03T00:19:36.328Z,0.34
2023-04-03T00:20:36.533Z,0.16
2023-04-03T00:21:36.296Z,0.17
2023-04-03T00:22:36.290Z,0.17
2023-04-03T00:23:36.274Z,0.16
2023-04-03T00:24:36.270Z,0.07
2023-04-03T00:25:36.257Z,0.04
2023-04-03T00:26:36.248Z,-0.01
2023-04-03T00:27:36.237Z,0.08
2023-04-03T00:28:36.217Z,0.12
2023-04-03T00:29:36.206Z,0.10
2023-04-03T00:30:36.361Z,0.07
2023-04-03T00:31:36.194Z,0.05
2023-04-03T00:32:36.196Z,-0.02
2023-04-03T00:33:36.162Z,-0.16
2023-04-03T00:34:36.174Z,-0.19
2023-04-03T00:35:36.287Z,-0.26
2023-04-03T00:36:36.200Z,-0.27
2023-04-03T00:37:36.125Z,-0.35
2023-04-03T00:38:36.105Z,-0.37
2023-04-03T00:39:36.179Z,-0.39
2023-04-03T00:40:36.376Z,-0.30
2023-04-03T00:41:36.075Z,-0.20
2023-04-03T00:42:36.061Z,-0.17
2023-04-03T00:43:36.055Z,-0.17
2023-04-03T00:44:36.064Z,-0.17
2023-04-03T00:45:36.031Z,-0.16
2023-04-03T00:46:36.056Z,-0.09
2023-04-03T00:47:36.120Z,-0.02
2023-04-03T00:48:36.039Z,-0.01
2023-04-03T00:49:36.060Z,-0.01
2023-04-03T00:50:36.333Z,0.02
2023-04-03T00:51:35.964Z,0.04
2023-04-03T00:52:35.953Z,0.13
2023-04-03T00:53:35.941Z,0.15
2023-04-03T00:54:35.931Z,0.08
2023-04-03T00:55:35.924Z,0.07
2023-04-03T00:56:35.906Z,0.15
2023-04-03T00:57:35.965Z,0.19
2023-04-03T00:58:35.884Z,0.16
2023-04-03T00:59:35.925Z,0.12
2023-04-03T01:00:36.231Z,0.12
2023-04-03T01:01:35.870Z,0.08
2023-04-03T01:02:35.851Z,0.04
2023-04-03T01:03:35.833Z,-0.02
2023-04-03T01:04:35.949Z,-0.06
2023-04-03T01:05:35.809Z,-0.08
2023-04-03T01:06:35.824Z,-0.06
2023-04-03T01:07:35.787Z,-0.05
2023-04-03T01:08:35.777Z,-0.05
2023-04-03T01:09:35.767Z,-0.06
2023-04-03T01:10:36.021Z,-0.08
2023-04-03T01:11:35.743Z,-0.09
2023-04-03T01:12:35.736Z,-0.09
2023-04-03T01:13:35.728Z,-0.12
2023-04-03T01:14:35.711Z,-0.13
2023-04-03T01:15:35.701Z,-0.17
2023-04-03T01:16:35.726Z,-0.19
2023-04-03T01:17:35.751Z,-0.19
2023-04-03T01:18:35.665Z,-0.20
2023-04-03T01:19:35.663Z,-0.21
2023-04-03T01:20:35.927Z,-0.26
2023-04-03T01:21:35.640Z,-0.27
2023-04-03T01:22:35.648Z,-0.30
2023-04-03T01:23:35.613Z,-0.19
2023-04-03T01:24:35.601Z,-0.13
2023-04-03T01:25:35.589Z,-0.13
2023-04-03T01:26:35.580Z,-0.09
2023-04-03T01:27:35.568Z,-0.14
2023-04-03T01:28:35.559Z,-0.16
2023-04-03T01:29:35.549Z,-0.13
2023-04-03T01:30:35.771Z,-0.14
2023-04-03T01:31:35.573Z,-0.08
2023-04-03T01:32:35.594Z,-0.09
2023-04-03T01:33:35.505Z,-0.06
2023-04-03T01:34:35.499Z,-0.01
2023-04-03T01:35:35.499Z,0.04
2023-04-03T01:36:35.466Z,0.05
2023-04-03T01:37:35.457Z,0.12
2023-04-03T01:38:35.473Z,0.10
2023-04-03T01:39:35.439Z,0.07
2023-04-03T01:40:35.661Z,0.10
2023-04-03T01:41:35.413Z,0.16
2023-04-03T01:42:35.403Z,0.17
2023-04-03T01:43:35.388Z,0.16
2023-04-03T01:44:35.398Z,0.23
2023-04-03T01:45:35.399Z,0.25
2023-04-03T01:46:35.360Z,0.23
2023-04-03T01:47:35.377Z,0.22
2023-04-03T01:48:35.344Z,0.20
2023-04-03T01:49:35.322Z,0.16
2023-04-03T01:50:35.685Z,0.16
2023-04-03T01:51:35.298Z,0.13
2023-04-03T01:52:35.292Z,0.13
2023-04-03T01:53:35.279Z,0.13
2023-04-03T01:54:35.303Z,0.13
2023-04-03T01:55:35.259Z,0.15
2023-04-03T01:56:35.245Z,0.13
2023-04-03T01:57:35.284Z,0.10
2023-04-03T01:58:35.223Z,0.12
2023-04-03T01:59:35.223Z,0.17
2023-04-03T02:00:35.505Z,0.20
2023-04-03T02:01:35.233Z,0.23
2023-04-03T02:02:35.227Z,0.19
2023-04-03T02:03:35.266Z,0.16
2023-04-03T02:04:35.166Z,0.16
2023-04-03T02:05:35.148Z,0.16
2023-04-03T02:06:35.136Z,0.28
2023-04-03T02:07:35.131Z,0.25
2023-04-03T02:08:35.113Z,0.28
2023-04-03T02:09:35.108Z,0.30
2023-04-03T02:10:35.360Z,0.28
2023-04-03T02:11:35.095Z,0.37
2023-04-03T02:12:35.082Z,0.38
2023-04-03T02:13:35.102Z,0.33
2023-04-03T02:14:35.082Z,0.28
2023-04-03T02:15:35.063Z,0.25
2023-04-03T02:16:35.057Z,0.23
2023-04-03T02:17:35.043Z,0.31
2023-04-03T02:18:35.023Z,0.28
2023-04-03T02:19:34.986Z,0.28
2023-04-03T02:20:35.272Z,0.23
2023-04-03T02:21:34.967Z,0.25
2023-04-03T02:22:34.967Z,0.23
2023-04-03T02:23:34.945Z,0.22
2023-04-03T02:24:34.933Z,0.19
2023-04-03T02:25:36.629Z,0.25
2023-04-03T02:26:34.936Z,0.26
2023-04-03T02:27:34.902Z,0.22
2023-04-03T02:28:34.892Z,0.20
2023-04-03T02:29:34.882Z,0.17
2023-04-03T02:30:35.174Z,0.13
2023-04-03T02:31:34.891Z,0.07
2023-04-03T02:32:34.873Z,-0.02
2023-04-03T02:33:34.833Z,-0.12
2023-04-03T02:34:34.833Z,-0.17
2023-04-03T02:35:34.844Z,-0.19
2023-04-03T02:36:34.800Z,-0.08
2023-04-03T02:37:34.806Z,-0.12
2023-04-03T02:38:34.817Z,-0.16
2023-04-03T02:39:34.765Z,-0.20
2023-04-03T02:40:34.988Z,-0.23
2023-04-03T02:41:34.747Z,-0.27
2023-04-03T02:42:34.761Z,-0.35
2023-04-03T02:43:34.724Z,-0.39
2023-04-03T02:44:34.717Z,-0.42
2023-04-03T02:45:34.698Z,-0.44
2023-04-03T02:46:34.776Z,-0.45
2023-04-03T02:47:34.693Z,-0.39
2023-04-03T02:48:34.675Z,-0.42
2023-04-03T02:49:34.656Z,-0.45
2023-04-03T02:50:34.919Z,-0.52
2023-04-03T02:51:34.647Z,-0.58
2023-04-03T02:52:34.631Z,-0.59
2023-04-03T02:53:34.616Z,-0.62
2023-04-03T02:54:34.612Z,-0.56
2023-04-03T02:55:34.599Z,-0.56
2023-04-03T02:56:34.594Z,-0.59
2023-04-03T02:57:34.619Z,-0.62
2023-04-03T02:58:34.593Z,-0.59
2023-04-03T02:59:34.554Z,-0.63
2023-04-03T03:00:34.781Z,-0.67
2023-04-03T03:01:34.593Z,-0.68
2023-04-03T03:02:34.544Z,-0.73
2023-04-03T03:03:34.503Z,-0.77
2023-04-03T03:04:34.553Z,-0.71
2023-04-03T03:05:34.482Z,-0.60
2023-04-03T03:06:34.473Z,-0.59
2023-04-03T03:07:34.459Z,-0.62
2023-04-03T03:08:34.449Z,-0.62
2023-04-03T03:09:34.437Z,-0.73
2023-04-03T03:10:34.732Z,-0.73
2023-04-03T03:11:34.415Z,-0.71
2023-04-03T03:12:34.405Z,-0.73
2023-04-03T03:13:34.395Z,-0.73
2023-04-03T03:14:34.408Z,-0.77
2023-04-03T03:15:34.371Z,-0.80
2023-04-03T03:16:34.364Z,-0.80
2023-04-03T03:17:34.438Z,-0.77
2023-04-03T03:18:34.336Z,-0.80
2023-04-03T03:19:34.326Z,-0.86
2023-04-03T03:20:34.582Z,-0.90
2023-04-03T03:21:34.320Z,-0.93
2023-04-03T03:22:34.293Z,-0.93
2023-04-03T03:23:34.300Z,-0.90
2023-04-03T03:24:34.270Z,-0.89
2023-04-03T03:25:34.286Z,-0.76
2023-04-03T03:26:34.252Z,-0.77
2023-04-03T03:27:34.240Z,-0.80
2023-04-03T03:28:34.225Z,-0.80
2023-04-03T03:29:34.214Z,-0.76
2023-04-03T03:30:34.225Z,-0.73
2023-04-03T03:31:34.264Z,-0.78
2023-04-03T03:32:34.221Z,-0.83
2023-04-03T03:33:34.169Z,-0.81
2023-04-03T03:34:34.159Z,-0.80
2023-04-03T03:35:34.168Z,-0.85
2023-04-03T03:36:34.134Z,-0.92
2023-04-03T03:37:34.127Z,-0.96
2023-04-03T03:38:34.122Z,-0.80
2023-04-03T03:39:34.099Z,-0.78
2023-04-03T03:40:34.091Z,-0.77
2023-04-03T03:41:34.076Z,-0.74
2023-04-03T03:42:34.068Z,-0.74
2023-04-03T03:43:34.061Z,-0.80
2023-04-03T03:44:34.044Z,-0.83
2023-04-03T03:45:34.095Z,-0.86
2023-04-03T03:46:34.216Z,-0.92
2023-04-03T03:47:34.035Z,-0.96
2023-04-03T03:48:34.024Z,-1.00
2023-04-03T03:49:33.987Z,-0.93
2023-04-03T03:50:33.982Z,-0.90
2023-04-03T03:51:33.969Z,-0.93
2023-04-03T03:52:33.957Z,-0.93
2023-04-03T03:53:33.949Z,-0.92
2023-04-03T03:54:33.943Z,-0.90
2023-04-03T03:55:34.025Z,-0.95
2023-04-03T03:56:33.923Z,-0.99
2023-04-03T03:57:33.920Z,-1.02
2023-04-03T03:58:33.896Z,-1.07
2023-04-03T03:59:33.878Z,-1.11
2023-04-03T04:00:33.872Z,-1.18
2023-04-03T04:01:33.916Z,-1.18
2023-04-03T04:02:33.974Z,-1.25
2023-04-03T04:03:33.972Z,-1.23
2023-04-03T04:04:33.827Z,-1.23
2023-04-03T04:05:33.831Z,-1.23
2023-04-03T04:06:33.808Z,-1.26
2023-04-03T04:07:33.790Z,-1.29
2023-04-03T04:08:33.783Z,-1.25
2023-04-03T04:09:33.767Z,-1.25
2023-04-03T04:10:33.763Z,-1.28
2023-04-03T04:11:33.750Z,-1.29
2023-04-03T04:12:33.737Z,-1.31
2023-04-03T04:13:33.724Z,-1.36
2023-04-03T04:14:33.717Z,-1.28
2023-04-03T04:15:33.702Z,-1.26
2023-04-03T04:16:33.753Z,-1.28
2023-04-03T04:17:33.717Z,-1.31
2023-04-03T04:18:33.699Z,-1.23
2023-04-03T04:19:33.666Z,-1.20
2023-04-03T04:20:33.654Z,-1.21
2023-04-03T04:21:33.634Z,-1.20
2023-04-03T04:22:33.636Z,-1.25
2023-04-03T04:23:33.631Z,-1.23
2023-04-03T04:24:33.608Z,-1.31
2023-04-03T04:25:33.590Z,-1.31
2023-04-03T04:26:33.580Z,-1.32
2023-04-03T04:27:33.566Z,-1.33
2023-04-03T04:28:33.558Z,-1.41
2023-04-03T04:29:33.543Z,-1.36
2023-04-03T04:30:33.538Z,-1.43
2023-04-03T04:31:33.548Z,-1.41
2023-04-03T04:32:33.545Z,-1.38
2023-04-03T04:33:33.498Z,-1.35
2023-04-03T04:34:33.602Z,-1.36
2023-04-03T04:35:33.526Z,-1.38
2023-04-03T04:36:33.522Z,-1.41
2023-04-03T04:37:33.454Z,-1.39
2023-04-03T04:38:33.456Z,-1.41
2023-04-03T04:39:33.434Z,-1.43
2023-04-03T04:40:33.424Z,-1.43
2023-04-03T04:41:33.412Z,-1.51
2023-04-03T04:42:33.402Z,-1.50
2023-04-03T04:43:33.388Z,-1.43
2023-04-03T04:44:33.377Z,-1.49
2023-04-03T04:45:33.369Z,-1.53
2023-04-03T04:46:33.422Z,-1.47
2023-04-03T04:47:33.364Z,-1.46
2023-04-03T04:48:33.342Z,-1.43
2023-04-03T04:49:33.324Z,-1.43
2023-04-03T04:50:33.341Z,-1.47
2023-04-03T04:51:41.042Z,-1.44
2023-04-03T04:52:34.326Z,-1.35
2023-04-03T04:53:33.280Z,-1.32
2023-04-03T04:54:33.269Z,-1.29
2023-04-03T04:55:33.265Z,-1.29
2023-04-03T04:56:33.244Z,-1.32
2023-04-03T04:57:33.352Z,-1.31
2023-04-03T04:58:33.223Z,-1.36
2023-04-03T04:59:33.210Z,-1.43
2023-04-03T05:00:33.223Z,-1.41
2023-04-03T05:01:33.211Z,-1.39
2023-04-03T05:02:33.211Z,-1.43
2023-04-03T05:03:33.175Z,-1.51
2023-04-03T05:04:33.161Z,-1.54
2023-04-03T05:05:33.148Z,-1.57
2023-04-03T05:06:33.161Z,-1.54
2023-04-03T05:07:33.124Z,-1.49
2023-04-03T05:08:33.114Z,-1.47
2023-04-03T05:09:33.103Z,-1.49
2023-04-03T05:10:33.106Z,-1.53
2023-04-03T05:11:33.080Z,-1.47
2023-04-03T05:12:33.068Z,-1.44
2023-04-03T05:13:33.057Z,-1.43
2023-04-03T05:14:33.046Z,-1.39
2023-04-03T05:15:33.036Z,-1.29
2023-04-03T05:16:33.141Z,-1.21
2023-04-03T05:17:33.022Z,-1.13
2023-04-03T05:18:33.008Z,-1.05
2023-04-03T05:19:33.010Z,-0.96
2023-04-03T05:20:33.004Z,-1.03
2023-04-03T05:21:33.033Z,-1.05
2023-04-03T05:22:32.991Z,-1.08
2023-04-03T05:23:32.948Z,-1.10
2023-04-03T05:24:32.939Z,-1.11
2023-04-03T05:25:32.924Z,-1.05
2023-04-03T05:26:32.921Z,-1.08
2023-04-03T05:27:32.903Z,-1.11
2023-04-03T05:28:32.916Z,-1.13
2023-04-03T05:29:32.887Z,-1.13
2023-04-03T05:30:32.873Z,-1.05
2023-04-03T05:31:32.873Z,-1.03
2023-04-03T05:32:32.870Z,-0.99
2023-04-03T05:33:32.844Z,-0.95
2023-04-03T05:34:32.830Z,-0.83
2023-04-03T05:35:32.816Z,-0.78
2023-04-03T05:36:32.807Z,-0.63
2023-04-03T05:37:32.803Z,-0.52
2023-04-03T05:38:32.805Z,-0.38
2023-04-03T05:39:32.777Z,-0.34
2023-04-03T05:40:32.760Z,-0.35
2023-04-03T05:41:32.748Z,-0.34
2023-04-03T05:42:32.741Z,-0.27
2023-04-03T05:43:32.724Z,-0.27
2023-04-03T05:44:32.714Z,-0.27
2023-04-03T05:45:32.704Z,-0.19
2023-04-03T05:46:32.691Z,-0.09
2023-04-03T05:47:32.739Z,-0.02
2023-04-03T05:48:32.671Z,0.12
2023-04-03T05:49:32.679Z,0.17
2023-04-03T05:50:32.700Z,0.17
2023-04-03T05:51:32.634Z,0.19
2023-04-03T05:52:32.626Z,0.19
2023-04-03T05:53:32.609Z,0.28
2023-04-03T05:54:32.627Z,0.40
2023-04-03T05:55:32.588Z,0.48
2023-04-03T05:56:32.582Z,0.53
2023-04-03T05:57:32.697Z,0.62
2023-04-03T05:58:32.555Z,0.77
2023-04-03T05:59:32.545Z,0.84
2023-04-03T06:00:32.533Z,0.92
2023-04-03T06:01:32.524Z,0.99
2023-04-03T06:02:32.635Z,1.10
2023-04-03T06:03:32.673Z,1.07
2023-04-03T06:04:32.581Z,1.08
2023-04-03T06:05:32.482Z,1.14
2023-04-03T06:06:32.488Z,1.25
2023-04-03T06:07:32.459Z,1.28
2023-04-03T06:08:32.450Z,1.38
2023-04-03T06:09:32.446Z,1.52
2023-04-03T06:10:32.450Z,1.57
2023-04-03T06:11:32.416Z,1.63
2023-04-03T06:12:32.405Z,1.60
2023-04-03T06:13:32.395Z,1.64
2023-04-03T06:14:32.384Z,1.71
2023-04-03T06:15:32.385Z,1.85
2023-04-03T06:16:32.420Z,2.01
2023-04-03T06:17:32.366Z,2.11
2023-04-03T06:18:32.338Z,2.29
2023-04-03T06:19:32.336Z,2.40
2023-04-03T06:20:32.308Z,2.51
2023-04-03T06:21:32.307Z,2.68
2023-04-03T06:22:32.292Z,2.80
2023-04-03T06:23:32.284Z,2.90
2023-04-03T06:24:32.276Z,3.02
2023-04-03T06:25:32.256Z,3.12
2023-04-03T06:26:32.270Z,3.17
2023-04-03T06:27:32.235Z,3.23
2023-04-03T06:28:32.223Z,3.30
2023-04-03T06:29:32.224Z,3.53
2023-04-03T06:30:32.209Z,3.67
2023-04-03T06:31:32.299Z,3.77
2023-04-03T06:32:32.219Z,3.81
2023-04-03T06:33:32.171Z,3.82
2023-04-03T06:34:32.157Z,3.88
2023-04-03T06:35:32.189Z,3.95
2023-04-03T06:36:32.132Z,3.95
2023-04-03T06:37:32.123Z,4.04
2023-04-03T06:38:32.265Z,4.18
2023-04-03T06:39:32.102Z,4.20
2023-04-03T06:40:32.091Z,4.29
2023-04-03T06:41:32.082Z,4.35
2023-04-03T06:42:32.090Z,4.56
2023-04-03T06:43:33.216Z,4.65
2023-04-03T06:44:32.049Z,4.75
2023-04-03T06:45:32.043Z,4.75
2023-04-03T06:46:32.059Z,4.75
2023-04-03T06:47:32.074Z,4.88
2023-04-03T06:48:32.012Z,4.96
2023-04-03T06:49:31.990Z,5.12
2023-04-03T06:50:31.977Z,5.26
2023-04-03T06:51:31.967Z,5.05
2023-04-03T06:52:31.959Z,5.04
2023-04-03T06:53:31.954Z,5.20
2023-04-03T06:54:31.936Z,5.17
2023-04-03T06:55:31.922Z,5.01
2023-04-03T06:56:31.920Z,4.93
2023-04-03T06:57:31.944Z,5.26
2023-04-03T06:58:31.928Z,5.47
2023-04-03T06:59:31.879Z,5.77
2023-04-03T07:00:31.872Z,5.66
2023-04-03T07:01:31.918Z,5.81
2023-04-03T07:02:31.871Z,6.02
2023-04-03T07:03:32.653Z,6.28
2023-04-03T07:04:31.882Z,6.45
2023-04-03T07:05:31.810Z,6.64
2023-04-03T07:06:31.801Z,6.60
2023-04-03T07:07:31.794Z,6.28
2023-04-03T07:08:32.002Z,6.36
2023-04-03T07:09:31.776Z,6.38
2023-04-03T07:10:31.751Z,6.45
2023-04-03T07:11:31.743Z,6.28
2023-04-03T07:12:31.734Z,6.19
2023-04-03T07:13:31.728Z,6.20
2023-04-03T07:14:31.738Z,6.42
2023-04-03T07:15:31.699Z,6.54
2023-04-03T07:16:31.912Z,6.38
2023-04-03T07:17:31.716Z,6.40
2023-04-03T07:18:31.662Z,6.58
2023-04-03T07:19:31.664Z,6.78
2023-04-03T07:20:31.648Z,6.96
2023-04-03T07:21:31.632Z,7.16
2023-04-03T07:22:31.628Z,7.41
2023-04-03T07:23:31.617Z,7.42
2023-04-03T07:24:31.600Z,7.57
2023-04-03T07:25:31.592Z,7.34
2023-04-03T07:26:31.571Z,7.32
2023-04-03T07:27:31.560Z,7.39
2023-04-03T07:28:31.556Z,7.54
2023-04-03T07:29:31.546Z,7.55
2023-04-03T07:30:31.573Z,7.76
2023-04-03T07:31:31.548Z,7.92
2023-04-03T07:32:31.565Z,8.17
2023-04-03T07:33:31.495Z,8.43
2023-04-03T07:34:31.489Z,8.28
2023-04-03T07:35:31.489Z,8.52
2023-04-03T07:36:31.462Z,8.28
2023-04-03T07:37:31.452Z,7.99
2023-04-03T07:38:31.437Z,8.00
2023-04-03T07:39:31.443Z,8.42
2023-04-03T07:40:31.431Z,8.60
2023-04-03T07:41:31.417Z,8.45
2023-04-03T07:42:31.407Z,8.52
2023-04-03T07:43:31.394Z,8.24
2023-04-03T07:44:31.375Z,8.06
2023-04-03T07:45:31.426Z,8.07
2023-04-03T07:46:31.434Z,8.24
2023-04-03T07:47:31.370Z,7.84
2023-04-03T07:48:31.332Z,7.92
2023-04-03T07:49:31.325Z,8.07
2023-04-03T07:50:31.316Z,8.22
2023-04-03T07:51:31.294Z,8.09
2023-04-03T07:52:31.301Z,8.29
2023-04-03T07:53:31.273Z,8.42
2023-04-03T07:54:31.260Z,8.47
2023-04-03T07:55:32.498Z,8.68
2023-04-03T07:56:31.236Z,8.70
2023-04-03T07:57:31.286Z,8.79
2023-04-03T07:58:31.222Z,8.60
2023-04-03T07:59:31.220Z,9.00
2023-04-03T08:00:31.200Z,9.32
2023-04-03T08:01:31.194Z,9.49
2023-04-03T08:02:31.243Z,9.77
2023-04-03T08:03:31.427Z,10.01
2023-04-03T08:04:31.263Z,9.77
2023-04-03T08:05:31.142Z,9.55
2023-04-03T08:06:45.039Z,9.70
2023-04-03T08:07:31.110Z,9.70
2023-04-03T08:08:31.107Z,9.68
2023-04-03T08:09:31.124Z,9.96
2023-04-03T08:10:31.103Z,9.99
2023-04-03T08:11:31.078Z,9.74
2023-04-03T08:12:31.051Z,9.50
2023-04-03T08:13:31.045Z,9.63
2023-04-03T08:14:31.037Z,9.92
2023-04-03T08:15:31.024Z,10.17
2023-04-03T08:16:31.076Z,9.92
2023-04-03T08:17:31.020Z,9.93
2023-04-03T08:18:31.048Z,9.96
2023-04-03T08:19:30.981Z,10.34
2023-04-03T08:20:30.966Z,10.31
2023-04-03T08:21:30.960Z,10.36
2023-04-03T08:22:30.949Z,10.44
2023-04-03T08:23:30.934Z,10.44
2023-04-03T08:24:30.927Z,10.46
2023-04-03T08:25:30.931Z,10.29
2023-04-03T08:26:31.192Z,10.39
2023-04-03T08:27:30.885Z,10.70
2023-04-03T08:28:30.872Z,10.80
2023-04-03T08:29:32.066Z,11.17
2023-04-03T08:30:30.857Z,11.31
2023-04-03T08:31:30.842Z,11.13
2023-04-03T08:32:30.925Z,11.27
2023-04-03T08:33:30.827Z,11.64
2023-04-03T08:34:30.833Z,11.42
2023-04-03T08:35:30.966Z,11.09
2023-04-03T08:36:30.784Z,10.95
2023-04-03T08:37:30.776Z,10.75
2023-04-03T08:38:30.765Z,10.76
2023-04-03T08:39:30.784Z,10.80
2023-04-03T08:40:30.748Z,10.84
2023-04-03T08:41:30.732Z,11.20
2023-04-03T08:42:30.723Z,11.53
2023-04-03T08:43:30.712Z,11.56
2023-04-03T08:44:30.699Z,11.53
2023-04-03T08:45:30.691Z,11.42
2023-04-03T08:46:30.718Z,11.48
2023-04-03T08:47:30.697Z,11.74
2023-04-03T08:48:30.658Z,11.96
2023-04-03T08:49:30.681Z,12.13
2023-04-03T08:50:30.753Z,12.48
2023-04-03T08:51:30.618Z,12.51
2023-04-03T08:52:30.607Z,12.49
2023-04-03T08:53:30.596Z,12.71
2023-04-03T08:54:30.588Z,12.49
2023-04-03T08:55:30.579Z,12.34
2023-04-03T08:56:30.563Z,12.44
2023-04-03T08:57:30.788Z,12.55
2023-04-03T08:58:30.546Z,12.51
2023-04-03T08:59:30.531Z,12.25
2023-04-03T09:00:30.520Z,12.56
2023-04-03T09:01:30.512Z,12.96
2023-04-03T09:02:30.520Z,13.10
2023-04-03T09:03:30.511Z,12.98
2023-04-03T09:04:30.478Z,12.77
2023-04-03T09:05:30.468Z,13.01
2023-04-03T09:06:30.575Z,13.35
2023-04-03T09:07:30.452Z,13.46
2023-04-03T09:08:30.439Z,13.41
2023-04-03T09:09:30.423Z,13.46
2023-04-03T09:10:30.407Z,13.06
2023-04-03T09:11:30.577Z,13.57
2023-04-03T09:12:30.383Z,13.72
2023-04-03T09:13:30.376Z,13.38
2023-04-03T09:14:30.363Z,13.22
2023-04-03T09:15:38.526Z,13.44
2023-04-03T09:16:30.420Z,13.32
2023-04-03T09:17:30.330Z,13.50
2023-04-03T09:18:30.316Z,13.16
2023-04-03T09:19:30.370Z,13.32
2023-04-03T09:20:30.298Z,13.35
2023-04-03T09:21:30.283Z,13.59
2023-04-03T09:22:32.705Z,14.01
2023-04-03T09:23:30.268Z,13.83
2023-04-03T09:24:30.249Z,13.62
2023-04-03T09:25:31.710Z,13.27
2023-04-03T09:26:30.494Z,13.04
2023-04-03T09:27:30.223Z,13.31
2023-04-03T09:28:33.129Z,13.86
2023-04-03T09:29:31.226Z,14.04
2023-04-03T09:30:30.200Z,13.79
2023-04-03T09:31:30.226Z,13.99
2023-04-03T09:32:30.208Z,14.08
2023-04-03T09:33:30.156Z,14.19
2023-04-03T09:34:30.137Z,14.04
2023-04-03T09:35:40.550Z,13.62
2023-04-03T09:36:31.186Z,13.43
2023-04-03T09:37:30.109Z,13.93
2023-04-03T09:38:30.214Z,14.05
2023-04-03T09:39:30.104Z,14.53
2023-04-03T09:40:30.076Z,14.79
2023-04-03T09:41:30.066Z,14.67
2023-04-03T09:42:30.049Z,14.78
2023-04-03T09:43:30.040Z,14.87
2023-04-03T09:44:30.029Z,14.56
2023-04-03T09:45:30.020Z,14.71
2023-04-03T09:46:30.058Z,14.72
2023-04-03T09:47:30.023Z,14.48
2023-04-03T09:48:29.982Z,14.87
2023-04-03T09:49:29.993Z,15.07
2023-04-03T09:50:29.960Z,14.38
2023-04-03T09:51:29.955Z,13.87
2023-04-03T09:52:29.951Z,13.94
2023-04-03T09:53:29.941Z,14.06
2023-04-03T09:54:30.038Z,14.11
2023-04-03T09:55:29.982Z,14.49
2023-04-03T09:56:29.926Z,14.93
2023-04-03T09:57:29.963Z,15.33
2023-04-03T09:58:42.742Z,15.85
2023-04-03T09:59:29.872Z,15.96
2023-04-03T10:00:29.877Z,16.14
2023-04-03T10:01:29.975Z,16.51
2023-04-03T10:02:29.867Z,16.25
2023-04-03T10:03:29.818Z,16.30
2023-04-03T10:04:29.847Z,16.04
2023-04-03T10:05:29.801Z,15.44
2023-04-03T10:06:29.783Z,14.91
2023-04-03T10:07:29.771Z,15.13
2023-04-03T10:08:29.784Z,14.83
2023-04-03T10:09:29.754Z,14.95
2023-04-03T10:10:29.877Z,14.83
2023-04-03T10:11:29.735Z,14.59
2023-04-03T10:12:29.716Z,14.91
2023-04-03T10:13:30.876Z,15.38
2023-04-03T10:14:29.703Z,15.93
2023-04-03T10:15:29.704Z,15.77
2023-04-03T10:16:29.751Z,16.03
2023-04-03T10:17:29.702Z,15.78
2023-04-03T10:18:29.881Z,16.14
2023-04-03T10:19:29.682Z,15.68
2023-04-03T10:20:29.647Z,15.55
2023-04-03T10:21:29.643Z,15.12
2023-04-03T10:22:29.605Z,15.09
2023-04-03T10:23:29.594Z,15.62
2023-04-03T10:24:29.583Z,16.10
2023-04-03T10:25:29.573Z,16.45
2023-04-03T10:26:29.683Z,16.84
2023-04-03T10:27:29.556Z,16.75
2023-04-03T10:28:29.546Z,16.36
2023-04-03T10:29:29.539Z,16.14
2023-04-03T10:30:29.518Z,15.88
2023-04-03T10:31:29.582Z,15.80
2023-04-03T10:32:29.530Z,15.64
2023-04-03T10:33:29.482Z,16.14
2023-04-03T10:34:29.474Z,16.50
2023-04-03T10:35:29.467Z,15.88
2023-04-03T10:36:29.448Z,15.23
2023-04-03T10:37:29.449Z,15.33
2023-04-03T10:38:29.430Z,16.04
2023-04-03T10:39:29.438Z,16.14
2023-04-03T10:40:29.405Z,16.27
2023-04-03T10:41:29.407Z,16.32
2023-04-03T10:42:29.531Z,16.44
2023-04-03T10:43:29.385Z,16.44
2023-04-03T10:44:29.374Z,16.40
2023-04-03T10:45:29.349Z,15.66
2023-04-03T10:46:29.474Z,15.85
2023-04-03T10:47:29.723Z,16.30
2023-04-03T10:48:29.319Z,16.88
2023-04-03T10:49:29.306Z,17.38
2023-04-03T10:50:29.297Z,16.88
2023-04-03T10:51:29.283Z,16.36
2023-04-03T10:52:29.278Z,16.04
2023-04-03T10:53:29.264Z,15.41
2023-04-03T10:54:29.254Z,15.93
2023-04-03T10:55:29.244Z,16.29
2023-04-03T10:56:29.238Z,16.27
2023-04-03T10:57:29.237Z,16.22
2023-04-03T10:58:29.336Z,15.85
2023-04-03T10:59:29.202Z,16.08
2023-04-03T11:00:29.193Z,16.11
2023-04-03T11:01:29.214Z,16.42
2023-04-03T11:02:31.247Z,16.75
2023-04-03T11:03:29.174Z,16.27
2023-04-03T11:04:29.150Z,15.66
2023-04-03T11:05:29.154Z,15.41
2023-04-03T11:06:29.139Z,15.85
2023-04-03T11:07:29.118Z,16.13
2023-04-03T11:08:29.138Z,15.77
2023-04-03T11:09:29.097Z,16.18
2023-04-03T11:10:29.086Z,16.40
2023-04-03T11:11:29.070Z,17.05
2023-04-03T11:12:29.059Z,17.58
2023-04-03T11:13:29.067Z,17.73
2023-04-03T11:14:29.079Z,17.62
2023-04-03T11:15:29.033Z,17.57
2023-04-03T11:16:30.594Z,16.95
2023-04-03T11:17:29.045Z,16.91
2023-04-03T11:18:28.997Z,16.63
2023-04-03T11:19:28.984Z,16.18
2023-04-03T11:20:28.982Z,15.73
2023-04-03T11:21:28.961Z,15.91
2023-04-03T11:22:28.950Z,16.42
2023-04-03T11:23:35.517Z,16.30
2023-04-03T11:24:28.931Z,16.82
2023-04-03T11:25:28.916Z,16.82
2023-04-03T11:26:28.924Z,16.45
2023-04-03T11:27:28.900Z,16.95
2023-04-03T11:28:28.922Z,17.70
2023-04-03T11:30:28.984Z,17.10
2023-04-03T11:31:28.891Z,16.95
2023-04-03T11:32:28.898Z,16.82
2023-04-03T11:33:28.838Z,17.30
2023-04-03T11:34:28.861Z,17.36
2023-04-03T11:35:28.811Z,17.09
2023-04-03T11:36:32.528Z,17.12
2023-04-03T11:37:28.784Z,17.06
2023-04-03T11:38:28.773Z,16.57
2023-04-03T11:39:28.764Z,15.43
2023-04-03T11:40:28.751Z,14.71
2023-04-03T11:41:28.752Z,14.17
2023-04-03T11:42:28.841Z,13.46
2023-04-03T11:43:28.718Z,13.10
2023-04-03T11:44:28.710Z,12.59
2023-04-03T11:45:28.698Z,12.52
2023-04-03T11:46:28.862Z,12.38
2023-04-03T11:47:28.705Z,12.61
2023-04-03T11:48:28.760Z,12.73
2023-04-03T11:49:28.652Z,12.44
2023-04-03T11:50:28.641Z,12.08
2023-04-03T11:51:28.646Z,12.22
2023-04-03T11:52:28.615Z,12.46
2023-04-03T11:53:28.612Z,12.88
2023-04-03T11:54:35.218Z,13.19
2023-04-03T11:55:29.613Z,13.01
2023-04-03T11:56:28.575Z,13.17
2023-04-03T11:57:28.616Z,13.12
2023-04-03T11:58:28.565Z,13.50
2023-04-03T11:59:28.561Z,13.83
2023-04-03T12:00:28.526Z,14.21
2023-04-03T12:01:28.518Z,14.52
2023-04-03T12:02:28.653Z,14.90
2023-04-03T12:03:28.678Z,15.35
2023-04-03T12:04:28.701Z,14.90
2023-04-03T12:05:28.488Z,14.90
2023-04-03T12:06:28.457Z,14.86
2023-04-03T12:07:28.447Z,15.20
2023-04-03T12:08:28.448Z,15.53
2023-04-03T12:09:28.419Z,15.16
2023-04-03T12:10:32.394Z,15.37
2023-04-03T12:11:28.465Z,15.52
2023-04-03T12:12:28.432Z,15.89
2023-04-03T12:13:28.395Z,16.54
2023-04-03T12:14:28.394Z,16.54
2023-04-03T12:15:28.368Z,15.91
2023-04-03T12:16:28.376Z,15.76
2023-04-03T12:17:28.372Z,15.09
2023-04-03T12:18:28.443Z,14.59
2023-04-03T12:19:39.304Z,14.66
2023-04-03T12:20:29.329Z,15.34
2023-04-03T12:21:28.286Z,15.86
2023-04-03T12:22:28.280Z,16.44
2023-04-03T12:23:28.273Z,16.62
2023-04-03T12:24:28.266Z,16.17
2023-04-03T12:25:28.249Z,15.91
2023-04-03T12:26:32.436Z,15.93
2023-04-03T12:27:29.309Z,15.46
2023-04-03T12:28:28.212Z,15.74
2023-04-03T12:29:28.202Z,16.16
2023-04-03T12:30:28.191Z,16.85
2023-04-03T12:31:28.248Z,16.70
2023-04-03T12:32:28.199Z,16.72
2023-04-03T12:33:28.177Z,17.07
2023-04-03T12:34:28.276Z,17.57
2023-04-03T12:35:28.164Z,16.69
2023-04-03T12:36:28.125Z,16.37
2023-04-03T12:37:28.124Z,15.93
2023-04-03T12:38:28.110Z,15.88
2023-04-03T12:39:28.104Z,15.96
2023-04-03T12:40:28.086Z,15.78
2023-04-03T12:41:28.077Z,15.67
2023-04-03T12:42:28.062Z,15.80
2023-04-03T12:43:28.050Z,15.49
2023-04-03T12:44:28.043Z,15.70
2023-04-03T12:45:28.053Z,15.77
2023-04-03T12:46:28.135Z,16.07
2023-04-03T12:47:28.064Z,16.08
2023-04-03T12:48:28.002Z,16.29
2023-04-03T12:49:27.989Z,16.30
2023-04-03T12:50:28.109Z,16.27
2023-04-03T12:51:27.965Z,16.67
2023-04-03T12:52:27.962Z,16.48
2023-04-03T12:53:27.943Z,16.87
2023-04-03T12:54:27.951Z,16.06
2023-04-03T12:55:27.930Z,15.27
2023-04-03T12:56:27.914Z,15.20
2023-04-03T12:57:27.958Z,15.96
2023-04-03T12:58:27.906Z,16.23
2023-04-03T12:59:27.891Z,16.01
2023-04-03T13:00:27.884Z,15.99
2023-04-03T13:01:27.896Z,16.80